createdAt,value
2017-11-08T00:00:15.725Z,101210.11
2017-11-08T00:02:43.254Z,101214.60
2017-11-08T00:05:10.831Z,101205.84
2017-11-08T00:07:38.360Z,101204.77
2017-11-08T00:10:05.897Z,101196.63
2017-11-08T00:12:33.468Z,101202.95
2017-11-08T00:15:00.997Z,101199.84
2017-11-08T00:17:28.519Z,101199.69
2017-11-08T00:19:58.060Z,101206.35
2017-11-08T00:22:25.588Z,101209.56
2017-11-08T00:24:53.162Z,101214.77
2017-11-08T00:27:20.681Z,101214.84
2017-11-08T00:29:48.218Z,101212.47
2017-11-08T00:32:15.895Z,101204.34
2017-11-08T00:34:43.436Z,101214.36
2017-11-08T00:37:10.956Z,101209.20
2017-11-08T00:39:38.526Z,101211.16
2017-11-08T00:42:06.057Z,101204.95
2017-11-08T00:44:33.584Z,101205.35
2017-11-08T00:47:01.314Z,101203.34
2017-11-08T00:49:28.841Z,101205.20
2017-11-08T00:51:56.366Z,101206.72
2017-11-08T00:54:23.961Z,101206.59
2017-11-08T00:56:51.476Z,101207.12
2017-11-08T00:59:19.006Z,101202.43
2017-11-08T01:01:47.049Z,101208.78
2017-11-08T01:04:14.563Z,101202.17
2017-11-08T01:06:42.094Z,101198.36
2017-11-08T01:09:09.640Z,101204.89
2017-11-08T01:11:37.202Z,101199.44
2017-11-08T01:14:04.753Z,101204.11
2017-11-08T01:16:33.320Z,101202.92
2017-11-08T01:19:00.874Z,101197.92
2017-11-08T01:21:28.449Z,101194.52
2017-11-08T01:23:56.002Z,101192.02
2017-11-08T01:26:23.519Z,101188.72
2017-11-08T01:28:51.101Z,101189.14
2017-11-08T01:31:18.629Z,101189.45
2017-11-08T01:33:46.148Z,101184.88
2017-11-08T01:36:13.724Z,101195.70
2017-11-08T01:38:43.060Z,101188.89
2017-11-08T01:41:16.824Z,101186.47
2017-11-08T01:43:44.354Z,101188.28
2017-11-08T01:46:17.105Z,101185.84
2017-11-08T01:48:44.637Z,101177.49
2017-11-08T01:51:14.132Z,101182.31
2017-11-08T01:53:41.725Z,101178.11
2017-11-08T01:56:09.313Z,101179.70
2017-11-08T01:58:36.907Z,101180.08
2017-11-08T02:01:04.502Z,101182.06
2017-11-08T02:03:32.133Z,101180.62
2017-11-08T02:05:59.656Z,101183.08
2017-11-08T02:08:27.191Z,101183.80
2017-11-08T02:10:54.810Z,101195.23
2017-11-08T02:13:22.332Z,101201.52
2017-11-08T02:15:50.611Z,101209.02
2017-11-08T02:18:22.445Z,101206.09
2017-11-08T02:20:50.005Z,101200.62
2017-11-08T02:23:17.621Z,101195.64
2017-11-08T02:25:45.332Z,101193.92
2017-11-08T02:28:12.873Z,101193.70
2017-11-08T02:30:40.416Z,101198.37
2017-11-08T02:33:08.384Z,101195.41
2017-11-08T02:35:35.951Z,101199.56
2017-11-08T02:38:03.481Z,101206.34
2017-11-08T02:40:31.038Z,101203.52
2017-11-08T02:42:58.573Z,101210.08
2017-11-08T02:45:34.793Z,101213.41
2017-11-08T02:48:02.329Z,101210.60
2017-11-08T02:50:30.272Z,101217.20
2017-11-08T02:52:57.785Z,101212.47
2017-11-08T02:55:25.320Z,101211.67
2017-11-08T02:57:53.176Z,101218.25
2017-11-08T03:00:20.719Z,101212.27
2017-11-08T03:02:51.057Z,101217.03
2017-11-08T03:05:18.661Z,101228.27
2017-11-08T03:07:46.182Z,101229.69
2017-11-08T03:10:13.714Z,101230.23
2017-11-08T03:12:41.375Z,101225.03
2017-11-08T03:15:08.906Z,101227.45
2017-11-08T03:17:36.446Z,101230.77
2017-11-08T03:20:04.216Z,101229.98
2017-11-08T03:22:31.746Z,101233.27
2017-11-08T03:24:59.283Z,101235.30
2017-11-08T03:27:27.049Z,101230.16
2017-11-08T03:29:54.584Z,101223.91
2017-11-08T03:32:22.277Z,101226.77
2017-11-08T03:34:49.862Z,101230.44
2017-11-08T03:37:17.409Z,101218.59
2017-11-08T03:39:44.966Z,101215.27
2017-11-08T03:42:12.531Z,101197.83
2017-11-08T03:44:40.189Z,101196.64
2017-11-08T03:47:07.707Z,101187.28
2017-11-08T03:49:35.269Z,101187.35
2017-11-08T03:52:03.181Z,101187.15
2017-11-08T03:54:30.716Z,101173.40
2017-11-08T03:56:58.227Z,101172.75
2017-11-08T03:59:25.910Z,101170.56
2017-11-08T04:01:53.442Z,101176.03
2017-11-08T04:04:20.970Z,101178.94
2017-11-08T04:06:48.527Z,101171.91
2017-11-08T04:09:16.081Z,101175.19
2017-11-08T04:11:43.600Z,101173.85
2017-11-08T04:14:11.336Z,101178.86
2017-11-08T04:16:38.861Z,101179.39
2017-11-08T04:19:06.398Z,101174.12
2017-11-08T04:21:34.161Z,101174.86
2017-11-08T04:24:01.712Z,101176.88
2017-11-08T04:26:29.241Z,101169.80
2017-11-08T04:28:56.980Z,101168.45
2017-11-08T04:31:24.502Z,101172.95
2017-11-08T04:33:52.040Z,101172.22
2017-11-08T04:36:19.579Z,101175.84
2017-11-08T04:38:47.105Z,101178.08
2017-11-08T04:41:14.814Z,101180.89
2017-11-08T04:43:42.328Z,101176.41
2017-11-08T04:46:09.870Z,101177.03
2017-11-08T04:48:38.177Z,101176.09
2017-11-08T04:51:05.704Z,101172.80
2017-11-08T04:53:33.229Z,101171.53
2017-11-08T04:56:00.787Z,101169.90
2017-11-08T04:58:28.304Z,101165.67
2017-11-08T05:00:55.833Z,101166.88
2017-11-08T05:03:23.397Z,101171.80
2017-11-08T05:05:50.925Z,101168.33
2017-11-08T05:08:18.511Z,101173.32
2017-11-08T05:10:46.023Z,101175.83
2017-11-08T05:13:13.588Z,101185.00
2017-11-08T05:15:41.161Z,101182.03
2017-11-08T05:18:08.682Z,101182.06
2017-11-08T05:20:36.209Z,101185.31
2017-11-08T05:23:03.792Z,101189.31
2017-11-08T05:25:31.312Z,101192.73
2017-11-08T05:27:58.825Z,101208.19
2017-11-08T05:30:26.404Z,101217.16
2017-11-08T05:32:53.941Z,101219.34
2017-11-08T05:35:21.464Z,101217.13
2017-11-08T05:37:49.008Z,101213.75
2017-11-08T05:40:16.538Z,101228.45
2017-11-08T05:42:44.083Z,101220.20
2017-11-08T05:45:11.603Z,101214.80
2017-11-08T05:47:39.628Z,101217.73
2017-11-08T05:50:07.170Z,101211.11
2017-11-08T05:52:34.697Z,101205.16
2017-11-08T05:55:02.649Z,101213.75
2017-11-08T05:57:30.169Z,101221.42
2017-11-08T05:59:57.693Z,101221.44
2017-11-08T06:02:25.265Z,101220.68
2017-11-08T06:04:52.789Z,101219.94
2017-11-08T06:07:20.314Z,101222.43
2017-11-08T06:09:47.878Z,101221.25
2017-11-08T06:12:15.395Z,101221.20
2017-11-08T06:14:42.923Z,101223.97
2017-11-08T06:17:10.504Z,101230.28
2017-11-08T06:19:38.021Z,101234.58
2017-11-08T06:22:05.540Z,101244.13
2017-11-08T06:24:33.090Z,101234.56
2017-11-08T06:27:00.627Z,101218.54
2017-11-08T06:29:28.169Z,101213.69
2017-11-08T06:31:55.717Z,101222.06
2017-11-08T06:34:23.441Z,101225.52
2017-11-08T06:36:50.961Z,101219.98
2017-11-08T06:39:18.490Z,101217.80
2017-11-08T06:41:46.242Z,101219.22
2017-11-08T06:44:13.748Z,101232.48
2017-11-08T06:46:41.285Z,101232.51
2017-11-08T06:49:08.947Z,101229.92
2017-11-08T06:51:36.472Z,101241.74
2017-11-08T06:54:03.994Z,101232.83
2017-11-08T06:56:31.556Z,101226.12
2017-11-08T06:58:59.081Z,101231.95
2017-11-08T07:01:26.672Z,101230.52
2017-11-08T07:03:54.202Z,101230.05
2017-11-08T07:06:21.716Z,101238.69
2017-11-08T07:08:49.295Z,101233.59
2017-11-08T07:11:16.830Z,101235.25
2017-11-08T07:13:44.361Z,101243.03
2017-11-08T07:16:11.924Z,101247.63
2017-11-08T07:18:39.453Z,101247.68
2017-11-08T07:21:06.973Z,101251.38
2017-11-08T07:23:34.978Z,101254.73
2017-11-08T07:26:02.515Z,101251.70
2017-11-08T07:28:30.036Z,101255.08
2017-11-08T07:30:58.014Z,101250.16
2017-11-08T07:33:25.542Z,101255.25
2017-11-08T07:35:53.124Z,101260.27
2017-11-08T07:38:20.705Z,101268.47
2017-11-08T07:40:48.225Z,101278.70
2017-11-08T07:43:15.771Z,101288.94
2017-11-08T07:45:43.450Z,101284.88
2017-11-08T07:48:10.965Z,101284.44
2017-11-08T07:50:38.480Z,101291.86
2017-11-08T07:53:06.364Z,101294.67
2017-11-08T07:55:39.528Z,101289.20
2017-11-08T07:58:07.118Z,101295.71
2017-11-08T08:00:34.641Z,101308.73
2017-11-08T08:03:02.174Z,101305.00
2017-11-08T08:05:29.718Z,101300.34
2017-11-08T08:07:57.992Z,101303.50
2017-11-08T08:10:25.720Z,101307.78
2017-11-08T08:12:53.247Z,101309.81
2017-11-08T08:15:20.786Z,101315.61
2017-11-08T08:17:48.763Z,101320.08
2017-11-08T08:20:16.284Z,101327.45
2017-11-08T08:22:43.796Z,101325.08
2017-11-08T08:25:11.681Z,101321.73
2017-11-08T08:27:39.239Z,101324.28
2017-11-08T08:30:06.761Z,101328.32
2017-11-08T08:32:34.323Z,101325.27
2017-11-08T08:35:01.872Z,101317.98
2017-11-08T08:37:29.420Z,101325.73
2017-11-08T08:39:57.121Z,101325.42
2017-11-08T08:42:24.645Z,101331.30
2017-11-08T08:44:52.155Z,101324.48
2017-11-08T08:47:20.137Z,101336.21
2017-11-08T08:49:47.670Z,101348.34
2017-11-08T08:52:15.198Z,101348.93
2017-11-08T08:54:43.166Z,101359.03
2017-11-08T08:57:10.700Z,101357.41
2017-11-08T08:59:38.226Z,101345.37
2017-11-08T09:05:01.835Z,101329.82
2017-11-08T09:07:29.413Z,101329.09
2017-11-08T09:09:56.934Z,101318.61
2017-11-08T09:12:24.461Z,101332.64
2017-11-08T09:14:52.013Z,101341.27
2017-11-08T09:17:19.630Z,101349.57
2017-11-08T09:19:47.177Z,101354.98
2017-11-08T09:22:14.695Z,101367.03
2017-11-08T09:24:47.875Z,101371.13
2017-11-08T09:27:15.393Z,101366.97
2017-11-08T09:29:43.089Z,101377.77
2017-11-08T09:32:10.603Z,101364.72
2017-11-08T09:34:43.864Z,101368.64
2017-11-08T09:37:11.375Z,101367.31
2017-11-08T09:39:39.079Z,101364.39
2017-11-08T09:42:25.234Z,101368.41
2017-11-08T09:44:52.779Z,101380.86
2017-11-08T09:47:20.304Z,101376.38
2017-11-08T09:49:47.864Z,101380.23
2017-11-08T09:52:15.394Z,101375.19
2017-11-08T09:54:42.921Z,101382.24
2017-11-08T09:57:11.383Z,101391.93
2017-11-08T09:59:39.010Z,101392.78
2017-11-08T10:02:06.531Z,101398.58
2017-11-08T10:04:34.082Z,101402.19
2017-11-08T10:07:01.602Z,101398.05
2017-11-08T10:09:30.200Z,101393.23
2017-11-08T10:12:01.747Z,101372.33
2017-11-08T10:14:29.844Z,101377.59
2017-11-08T10:16:57.363Z,101382.02
2017-11-08T10:19:26.795Z,101365.22
2017-11-08T10:21:54.345Z,101348.44
2017-11-08T10:24:21.875Z,101364.22
2017-11-08T10:26:49.925Z,101357.74
2017-11-08T10:29:17.462Z,101355.16
2017-11-08T10:31:44.976Z,101354.72
2017-11-08T10:34:12.961Z,101350.38
2017-11-08T10:36:40.474Z,101358.86
2017-11-08T10:39:08.013Z,101367.19
2017-11-08T10:41:35.699Z,101373.67
2017-11-08T10:44:03.191Z,101382.39
2017-11-08T10:46:30.736Z,101380.77
2017-11-08T10:48:58.261Z,101388.08
2017-11-08T10:51:29.433Z,101387.95
2017-11-08T10:53:57.005Z,101384.98
2017-11-08T10:56:24.570Z,101376.59
2017-11-08T10:58:52.180Z,101374.53
2017-11-08T11:01:20.671Z,101379.73
2017-11-08T11:03:51.946Z,101388.61
2017-11-08T11:06:19.525Z,101391.56
2017-11-08T11:08:47.171Z,101390.72
2017-11-08T11:11:14.697Z,101386.85
2017-11-08T11:13:48.235Z,101387.66
2017-11-08T11:16:16.621Z,101379.64
2017-11-08T11:18:44.233Z,101377.03
2017-11-08T11:21:11.790Z,101378.60
2017-11-08T11:23:49.478Z,101382.34
2017-11-08T11:26:17.081Z,101380.38
2017-11-08T11:28:44.645Z,101384.41
2017-11-08T11:31:12.215Z,101381.38
2017-11-08T11:33:39.789Z,101384.48
2017-11-08T11:36:07.326Z,101390.46
2017-11-08T11:38:36.779Z,101386.91
2017-11-08T11:41:04.324Z,101385.72
2017-11-08T11:43:31.876Z,101390.30
2017-11-08T11:45:59.588Z,101386.00
2017-11-08T11:48:33.674Z,101387.33
2017-11-08T11:51:06.925Z,101386.92
2017-11-08T11:53:34.474Z,101384.91
2017-11-08T11:56:02.041Z,101384.69
2017-11-08T11:58:29.632Z,101394.16
2017-11-08T12:00:57.253Z,101393.39
2017-11-08T12:03:24.826Z,101392.33
2017-11-08T12:05:52.441Z,101387.95
2017-11-08T12:08:20.459Z,101390.13
2017-11-08T12:10:48.091Z,101396.12
2017-11-08T12:13:15.620Z,101397.30
2017-11-08T12:15:43.365Z,101400.39
2017-11-08T12:18:10.913Z,101391.69
2017-11-08T12:20:38.458Z,101393.57
2017-11-08T12:23:06.049Z,101397.75
2017-11-08T12:25:33.588Z,101389.17
2017-11-08T12:28:01.133Z,101385.95
2017-11-08T12:30:28.812Z,101383.59
2017-11-08T12:32:56.362Z,101387.02
2017-11-08T12:35:24.737Z,101390.77
2017-11-08T12:37:52.375Z,101398.16
2017-11-08T12:40:20.731Z,101397.59
2017-11-08T12:42:50.093Z,101401.59
2017-11-08T12:45:18.039Z,101395.61
2017-11-08T12:47:45.588Z,101389.97
2017-11-08T12:50:13.145Z,101391.61
2017-11-08T12:52:40.741Z,101392.23
2017-11-08T12:55:08.314Z,101391.30
2017-11-08T12:57:36.834Z,101391.70
2017-11-08T13:00:05.538Z,101387.34
2017-11-08T13:02:33.092Z,101376.38
2017-11-08T13:05:00.682Z,101380.23
2017-11-08T13:07:28.722Z,101373.44
2017-11-08T13:09:56.267Z,101370.39
2017-11-08T13:12:23.840Z,101381.69
2017-11-08T13:14:51.442Z,101381.66
2017-11-08T13:17:18.997Z,101376.77
2017-11-08T13:19:46.538Z,101376.51
2017-11-08T13:22:14.122Z,101377.41
2017-11-08T13:24:41.670Z,101385.22
2017-11-08T13:27:09.211Z,101382.81
2017-11-08T13:29:36.915Z,101384.30
2017-11-08T13:32:04.469Z,101379.08
2017-11-08T13:34:32.009Z,101382.52
2017-11-08T13:36:59.576Z,101378.24
2017-11-08T13:39:27.122Z,101361.83
2017-11-08T13:41:54.765Z,101361.35
2017-11-08T13:44:22.366Z,101355.51
2017-11-08T13:46:49.937Z,101371.92
2017-11-08T13:49:17.501Z,101376.58
2017-11-08T13:51:45.087Z,101373.72
2017-11-08T13:54:12.645Z,101375.59
2017-11-08T13:56:40.197Z,101383.66
2017-11-08T13:59:07.893Z,101376.84
2017-11-08T14:01:35.425Z,101382.17
2017-11-08T14:04:06.815Z,101383.50
2017-11-08T14:06:34.509Z,101382.65
2017-11-08T14:09:02.040Z,101382.89
2017-11-08T14:11:29.585Z,101379.94
2017-11-08T14:13:57.143Z,101380.86
2017-11-08T14:16:24.657Z,101375.52
2017-11-08T14:18:52.254Z,101378.12
2017-11-08T14:21:19.765Z,101377.58
2017-11-08T14:23:47.333Z,101385.84
2017-11-08T14:26:14.922Z,101390.21
2017-11-08T14:28:42.451Z,101393.41
2017-11-08T14:31:09.974Z,101402.20
2017-11-08T14:33:37.573Z,101407.72
2017-11-08T14:36:11.464Z,101408.02
2017-11-08T14:38:39.312Z,101415.69
2017-11-08T14:41:06.834Z,101413.37
2017-11-08T14:43:34.361Z,101422.66
2017-11-08T14:46:01.927Z,101421.20
2017-11-08T14:48:29.447Z,101415.45
2017-11-08T14:50:57.028Z,101415.95
2017-11-08T14:53:24.554Z,101426.42
2017-11-08T14:55:52.090Z,101434.95
2017-11-08T14:58:19.676Z,101433.50
2017-11-08T15:00:47.193Z,101442.05
2017-11-08T15:03:14.721Z,101440.86
2017-11-08T15:05:42.661Z,101445.62
2017-11-08T15:08:10.194Z,101443.77
2017-11-08T15:10:37.721Z,101449.28
2017-11-08T15:13:05.260Z,101458.34
2017-11-08T15:15:33.020Z,101461.05
2017-11-08T15:18:00.540Z,101464.12
2017-11-08T15:20:28.854Z,101462.53
2017-11-08T15:22:56.751Z,101470.02
2017-11-08T15:25:24.287Z,101470.25
2017-11-08T15:27:51.809Z,101473.08
2017-11-08T15:30:24.891Z,101477.08
2017-11-08T15:32:52.419Z,101484.31
2017-11-08T15:35:20.159Z,101483.77
2017-11-08T15:37:47.688Z,101482.20
2017-11-08T15:40:31.881Z,101487.16
2017-11-08T15:42:59.412Z,101485.89
2017-11-08T15:45:26.993Z,101487.73
2017-11-08T15:47:54.525Z,101490.25
2017-11-08T15:50:22.047Z,101498.62
2017-11-08T15:52:50.064Z,101493.73
2017-11-08T15:55:17.596Z,101502.39
2017-11-08T15:57:45.123Z,101508.70
2017-11-08T16:00:12.880Z,101510.59
2017-11-08T16:02:40.414Z,101518.48
2017-11-08T16:05:07.932Z,101519.53
2017-11-08T16:07:35.915Z,101516.75
2017-11-08T16:10:03.468Z,101516.36
2017-11-08T16:12:30.998Z,101513.86
2017-11-08T16:14:58.588Z,101517.77
2017-11-08T16:17:26.906Z,101512.05
2017-11-08T16:19:54.438Z,101505.97
2017-11-08T16:22:22.106Z,101510.28
2017-11-08T16:24:49.650Z,101518.21
2017-11-08T16:27:17.184Z,101516.62
2017-11-08T16:29:44.977Z,101518.08
2017-11-08T16:32:20.968Z,101521.83
2017-11-08T16:34:48.863Z,101519.49
2017-11-08T16:37:16.386Z,101525.98
2017-11-08T16:39:43.904Z,101520.54
2017-11-08T16:42:11.541Z,101519.93
2017-11-08T16:44:39.093Z,101522.52
2017-11-08T16:47:06.639Z,101526.66
2017-11-08T16:49:34.186Z,101518.13
2017-11-08T16:52:01.763Z,101521.78
2017-11-08T16:54:29.284Z,101524.64
2017-11-08T16:56:56.802Z,101530.45
2017-11-08T16:59:24.359Z,101530.17
2017-11-08T17:01:51.950Z,101532.86
2017-11-08T17:04:19.478Z,101538.72
2017-11-08T17:06:47.001Z,101541.63
2017-11-08T17:09:14.949Z,101545.20
2017-11-08T17:11:42.466Z,101548.84
2017-11-08T17:14:09.994Z,101552.36
2017-11-08T17:16:37.669Z,101553.98
2017-11-08T17:19:05.190Z,101551.27
2017-11-08T17:21:32.713Z,101547.36
2017-11-08T17:24:00.703Z,101558.09
2017-11-08T17:26:28.230Z,101562.53
2017-11-08T17:28:55.764Z,101563.81
2017-11-08T17:31:23.347Z,101565.09
2017-11-08T17:33:50.892Z,101563.95
2017-11-08T17:36:18.428Z,101563.09
2017-11-08T17:38:46.146Z,101562.17
2017-11-08T17:41:13.689Z,101559.59
2017-11-08T17:43:41.209Z,101560.06
2017-11-08T17:46:08.758Z,101569.57
2017-11-08T17:48:38.165Z,101573.80
2017-11-08T17:51:05.754Z,101572.38
2017-11-08T17:53:33.278Z,101573.95
2017-11-08T17:56:00.806Z,101585.55
2017-11-08T17:58:28.882Z,101577.77
2017-11-08T18:00:56.404Z,101574.55
2017-11-08T18:03:23.933Z,101582.28
2017-11-08T18:05:51.698Z,101571.93
2017-11-08T18:08:19.218Z,101575.94
2017-11-08T18:10:46.754Z,101571.17
2017-11-08T18:13:14.325Z,101577.61
2017-11-08T18:15:41.875Z,101568.02
2017-11-08T18:18:09.401Z,101575.58
2017-11-08T18:20:37.134Z,101564.41
2017-11-08T18:23:04.673Z,101572.19
2017-11-08T18:25:32.203Z,101569.98
2017-11-08T18:28:00.091Z,101566.44
2017-11-08T18:30:27.618Z,101567.39
2017-11-08T18:32:55.158Z,101569.41
2017-11-08T18:35:22.738Z,101570.53
2017-11-08T18:37:50.270Z,101575.48
2017-11-08T18:40:17.792Z,101581.39
2017-11-08T18:42:45.493Z,101585.86
2017-11-08T18:45:13.021Z,101584.30
2017-11-08T18:47:40.547Z,101589.09
2017-11-08T18:50:08.208Z,101591.61
2017-11-08T18:52:35.892Z,101584.91
2017-11-08T18:55:03.424Z,101589.79
2017-11-08T18:57:30.958Z,101593.31
2017-11-08T18:59:58.549Z,101593.66
2017-11-08T19:02:26.064Z,101588.53
2017-11-08T19:04:53.582Z,101588.44
2017-11-08T19:07:21.149Z,101588.13
2017-11-08T19:09:48.668Z,101593.34
2017-11-08T19:12:16.194Z,101586.48
2017-11-08T19:14:43.751Z,101593.08
2017-11-08T19:17:11.318Z,101591.76
2017-11-08T19:19:38.901Z,101597.48
2017-11-08T19:22:06.453Z,101598.80
2017-11-08T19:24:34.017Z,101597.30
2017-11-08T19:27:01.726Z,101599.62
2017-11-08T19:29:29.250Z,101590.88
2017-11-08T19:31:56.771Z,101588.91
2017-11-08T19:34:24.738Z,101588.70
2017-11-08T19:36:52.466Z,101593.65
2017-11-08T19:39:20.026Z,101592.07
2017-11-08T19:41:47.757Z,101597.48
2017-11-08T19:44:15.277Z,101601.05
2017-11-08T19:46:42.900Z,101595.55
2017-11-08T19:49:10.504Z,101590.48
2017-11-08T19:51:38.030Z,101592.28
2017-11-08T19:54:05.558Z,101588.78
2017-11-08T19:56:33.671Z,101593.94
2017-11-08T19:59:01.205Z,101597.10
2017-11-08T20:01:28.747Z,101598.20
2017-11-08T20:03:56.423Z,101597.42
2017-11-08T20:06:23.957Z,101596.39
2017-11-08T20:08:51.485Z,101599.39
2017-11-08T20:11:19.081Z,101602.72
2017-11-08T20:13:46.632Z,101605.16
2017-11-08T20:16:14.174Z,101605.42
2017-11-08T20:18:41.877Z,101609.25
2017-11-08T20:21:09.389Z,101613.47
2017-11-08T20:23:36.918Z,101611.58
2017-11-08T20:26:04.466Z,101611.22
2017-11-08T20:28:31.985Z,101608.23
2017-11-08T20:30:59.586Z,101607.06
2017-11-08T20:33:27.111Z,101606.41
2017-11-08T20:35:54.635Z,101605.38
2017-11-08T20:38:22.180Z,101609.06
2017-11-08T20:40:49.709Z,101604.45
2017-11-08T20:43:17.393Z,101606.34
2017-11-08T20:45:44.905Z,101603.30
2017-11-08T20:48:12.431Z,101606.23
2017-11-08T20:50:40.103Z,101594.48
2017-11-08T20:53:07.618Z,101587.21
2017-11-08T20:55:35.150Z,101598.96
2017-11-08T20:58:02.834Z,101591.45
2017-11-08T21:00:30.352Z,101599.96
2017-11-08T21:02:57.872Z,101589.56
2017-11-08T21:05:25.412Z,101597.75
2017-11-08T21:07:52.934Z,101594.61
2017-11-08T21:10:20.501Z,101599.66
2017-11-08T21:12:48.031Z,101600.81
2017-11-08T21:15:15.734Z,101603.23
2017-11-08T21:17:43.258Z,101600.06
2017-11-08T21:20:10.786Z,101603.56
2017-11-08T21:22:38.417Z,101601.32
2017-11-08T21:25:06.911Z,101591.91
2017-11-08T21:27:34.504Z,101595.45
2017-11-08T21:30:02.105Z,101593.40
2017-11-08T21:32:29.635Z,101590.67
2017-11-08T21:34:57.174Z,101597.84
2017-11-08T21:37:24.926Z,101602.98
2017-11-08T21:39:52.457Z,101609.06
2017-11-08T21:42:19.978Z,101613.59
2017-11-08T21:44:47.558Z,101607.66
2017-11-08T21:47:15.086Z,101605.67
2017-11-08T21:49:42.613Z,101604.98
2017-11-08T21:52:10.376Z,101605.41
2017-11-08T21:54:37.900Z,101603.03
2017-11-08T21:57:05.430Z,101602.53
2017-11-08T21:59:33.013Z,101599.41
2017-11-08T22:02:00.546Z,101591.22
2017-11-08T22:04:28.066Z,101598.05
2017-11-08T22:06:55.633Z,101603.70
2017-11-08T22:09:23.159Z,101596.93
2017-11-08T22:11:50.689Z,101599.70
2017-11-08T22:14:19.214Z,101602.78
2017-11-08T22:16:46.742Z,101603.23
2017-11-08T22:19:14.265Z,101601.12
2017-11-08T22:21:42.157Z,101602.84
2017-11-08T22:24:09.683Z,101602.20
2017-11-08T22:26:37.218Z,101601.98
2017-11-08T22:29:04.779Z,101591.25
2017-11-08T22:31:32.692Z,101590.91
2017-11-08T22:34:00.320Z,101595.92
2017-11-08T22:36:27.841Z,101601.73
2017-11-08T22:38:55.414Z,101598.67
2017-11-08T22:41:22.966Z,101595.14
2017-11-08T22:43:50.489Z,101593.08
2017-11-08T22:46:18.159Z,101581.79
2017-11-08T22:48:45.836Z,101586.50
2017-11-08T22:51:13.359Z,101574.54
2017-11-08T22:53:40.953Z,101570.78
2017-11-08T22:56:08.472Z,101576.23
2017-11-08T22:58:36.003Z,101575.73
2017-11-08T23:01:03.654Z,101583.71
2017-11-08T23:03:31.177Z,101584.96
2017-11-08T23:05:58.701Z,101581.29
2017-11-08T23:08:26.281Z,101572.03
2017-11-08T23:10:53.825Z,101576.45
2017-11-08T23:13:21.354Z,101577.66
2017-11-08T23:15:49.029Z,101574.87
2017-11-08T23:18:16.926Z,101573.09
2017-11-08T23:20:44.497Z,101574.77
2017-11-08T23:23:12.352Z,101575.66
2017-11-08T23:25:40.272Z,101577.17
2017-11-08T23:28:08.492Z,101575.22
2017-11-08T23:30:36.041Z,101563.79
2017-11-08T23:33:03.641Z,101563.04
2017-11-08T23:35:31.178Z,101561.02
2017-11-08T23:37:58.725Z,101562.93
2017-11-08T23:40:26.730Z,101566.28
2017-11-08T23:42:54.259Z,101565.50
2017-11-08T23:45:21.789Z,101563.52
2017-11-08T23:47:49.408Z,101554.55
2017-11-08T23:50:17.035Z,101560.94
2017-11-08T23:52:44.570Z,101566.34
2017-11-08T23:55:12.166Z,101564.38
2017-11-08T23:57:39.701Z,101567.54
